Time;durP1;ratioP1;P1;durP2;ratioP2;P2;SDS_P1;SDS_P2;PMS_P1;PMS_P2;Temp;Humidity;BMP_temperature;BMP_pressure;BME280_temperature;BME280_humidity;BME280_pressure;Samples;Min_cycle;Max_cycle;Signal;HPM_P1;HPM_P2
2021/06/07 00:01:42;;;;;;;19.97;15.63;;;16.40;99.90;;;;;;5051431;28;20266;-77
2021/06/07 00:04:09;;;;;;;16.80;15.13;;;16.30;99.90;;;;;;5050131;28;20446;-77
2021/06/07 00:06:36;;;;;;;17.80;15.90;;;16.30;99.90;;;;;;5051635;28;20519;-77
2021/06/07 00:09:06;;;;;;;18.33;16.50;;;16.40;99.90;;;;;;5050767;28;20459;-77
2021/06/07 00:11:33;;;;;;;17.10;15.43;;;16.20;99.90;;;;;;5052739;28;20968;-77
2021/06/07 00:14:01;;;;;;;17.20;14.90;;;16.20;99.90;;;;;;5069234;28;20455;-77
2021/06/07 00:16:27;;;;;;;17.47;15.77;;;16.20;99.90;;;;;;5075352;28;20801;-77
2021/06/07 00:18:53;;;;;;;19.90;17.23;;;16.20;99.90;;;;;;5074015;28;20427;-78
2021/06/07 00:21:24;;;;;;;17.30;15.63;;;16.20;99.90;;;;;;5073890;28;20809;-78
2021/06/07 00:23:51;;;;;;;20.70;17.40;;;16.20;99.90;;;;;;5074482;28;20242;-78
2021/06/07 00:26:17;;;;;;;19.50;17.60;;;16.30;99.90;;;;;;5074463;28;20429;-77
2021/06/07 00:28:43;;;;;;;19.73;17.83;;;16.30;99.90;;;;;;5074676;28;20546;-80
2021/06/07 00:31:10;;;;;;;19.20;17.43;;;16.20;99.90;;;;;;5074687;28;20545;-78
2021/06/07 00:33:37;;;;;;;18.47;16.57;;;16.20;99.90;;;;;;5074069;28;20477;-77
2021/06/07 00:36:04;;;;;;;19.03;17.03;;;16.20;99.90;;;;;;5076422;28;20919;-78
2021/06/07 00:38:30;;;;;;;24.33;19.10;;;16.20;99.90;;;;;;5076150;28;20415;-76
2021/06/07 00:41:00;;;;;;;29.83;20.13;;;16.20;99.90;;;;;;5076110;28;20394;-77
2021/06/07 00:43:26;;;;;;;22.43;20.13;;;16.10;99.90;;;;;;5075670;28;20942;-79
2021/06/07 00:45:51;;;;;;;23.17;20.67;;;16.00;99.90;;;;;;5076232;28;20833;-78
2021/06/07 00:48:18;;;;;;;22.40;20.10;;;15.90;99.90;;;;;;5076110;28;20514;-77
2021/06/07 00:50:57;;;;;;;24.43;21.93;;;15.80;99.90;;;;;;5075958;28;20196;-78
2021/06/07 00:53:23;;;;;;;24.00;20.43;;;15.80;99.90;;;;;;5075750;28;20426;-76
2021/06/07 00:55:54;;;;;;;24.87;21.27;;;15.80;99.90;;;;;;5075854;28;20498;-77
2021/06/07 00:58:22;;;;;;;21.50;19.20;;;15.90;99.90;;;;;;5076048;28;20814;-78
2021/06/07 01:00:49;;;;;;;27.47;23.73;;;15.70;99.90;;;;;;5075879;28;20410;-77
2021/06/07 01:03:15;;;;;;;25.23;22.73;;;15.70;99.90;;;;;;5075633;28;20415;-76
2021/06/07 01:05:42;;;;;;;29.43;26.23;;;15.70;99.90;;;;;;5075653;28;20727;-77
2021/06/07 01:08:07;;;;;;;27.90;24.97;;;15.60;99.90;;;;;;5075731;28;20519;-78
2021/06/07 01:10:34;;;;;;;26.80;23.90;;;15.60;99.90;;;;;;5075589;28;20487;-77
2021/06/07 01:13:00;;;;;;;28.80;25.87;;;15.70;99.90;;;;;;5075362;28;20537;-78
2021/06/07 01:15:27;;;;;;;26.27;23.50;;;15.60;99.90;;;;;;5074150;28;20890;-78
2021/06/07 01:17:53;;;;;;;28.50;24.13;;;15.70;99.90;;;;;;5074545;28;20412;-76
2021/06/07 01:20:21;;;;;;;33.13;27.47;;;15.70;99.90;;;;;;5075679;28;20473;-78
2021/06/07 01:22:49;;;;;;;34.20;26.70;;;15.70;99.90;;;;;;5074992;28;20411;-78
2021/06/07 01:25:31;;;;;;;29.07;26.00;;;15.80;99.90;;;;;;5075518;28;20443;-78
2021/06/07 01:27:57;;;;;;;30.07;27.00;;;15.80;99.90;;;;;;5075305;28;20417;-76
2021/06/07 01:30:29;;;;;;;31.90;27.57;;;15.80;99.90;;;;;;5075020;28;20463;-78
2021/06/07 01:32:55;;;;;;;30.60;25.90;;;15.80;99.90;;;;;;5075167;28;20439;-78
2021/06/07 01:35:21;;;;;;;28.87;25.80;;;15.70;99.90;;;;;;5075125;28;20435;-78
2021/06/07 01:37:49;;;;;;;31.03;25.73;;;15.50;99.90;;;;;;5075023;28;20509;-78
2021/06/07 01:40:19;;;;;;;30.50;26.80;;;15.50;99.90;;;;;;5075039;28;20410;-76
2021/06/07 01:42:45;;;;;;;31.33;26.50;;;15.50;99.90;;;;;;5073477;28;20491;-77
2021/06/07 01:45:13;;;;;;;29.90;24.20;;;15.60;99.90;;;;;;5074984;28;20489;-78
2021/06/07 01:47:40;;;;;;;28.10;24.83;;;15.60;99.90;;;;;;5074834;28;20908;-77
2021/06/07 01:50:07;;;;;;;29.03;25.90;;;15.60;99.90;;;;;;5074803;28;20466;-77
2021/06/07 01:52:33;;;;;;;27.97;25.00;;;15.70;99.90;;;;;;5074786;28;20572;-77
2021/06/07 01:55:00;;;;;;;26.43;23.70;;;15.70;99.90;;;;;;5074468;28;20438;-76
2021/06/07 01:57:27;;;;;;;29.40;26.30;;;15.60;99.90;;;;;;5074797;28;20422;-77
2021/06/07 01:59:52;;;;;;;34.80;27.97;;;15.60;99.90;;;;;;5074777;28;20426;-76
2021/06/07 02:02:18;;;;;;;32.50;27.17;;;15.60;99.90;;;;;;5073707;28;20896;-77
2021/06/07 02:04:44;;;;;;;31.03;26.20;;;15.60;99.90;;;;;;5078613;28;20208;-78
2021/06/07 02:07:09;;;;;;;30.80;26.50;;;15.70;99.90;;;;;;5074747;28;20268;-77
2021/06/07 02:09:39;;;;;;;32.53;27.00;;;15.70;99.90;;;;;;5074436;28;20430;-77
2021/06/07 02:12:06;;;;;;;31.17;25.07;;;15.80;99.90;;;;;;5074724;28;20179;-76
2021/06/07 02:14:32;;;;;;;32.10;28.63;;;15.80;99.90;;;;;;5074084;28;20435;-77
2021/06/07 02:16:58;;;;;;;31.93;26.57;;;15.80;99.90;;;;;;5074372;28;20832;-76
2021/06/07 02:19:24;;;;;;;31.53;25.90;;;15.70;99.90;;;;;;5073049;28;20422;-77
2021/06/07 02:21:49;;;;;;;32.23;26.33;;;15.70;99.90;;;;;;5074087;28;20189;-78
2021/06/07 02:24:15;;;;;;;35.10;27.73;;;15.70;99.90;;;;;;5073709;28;20197;-77
2021/06/07 02:26:40;;;;;;;28.87;25.27;;;15.70;99.90;;;;;;5074166;28;20187;-77
2021/06/07 02:29:09;;;;;;;29.90;25.50;;;15.60;99.90;;;;;;5074032;28;20207;-76
2021/06/07 02:31:36;;;;;;;28.70;25.50;;;15.60;99.90;;;;;;5074136;28;20662;-77
2021/06/07 02:34:05;;;;;;;29.03;25.80;;;15.50;99.90;;;;;;5073572;28;20443;-77
2021/06/07 02:36:32;;;;;;;32.93;27.70;;;15.60;99.90;;;;;;5073256;28;20422;-78
2021/06/07 02:38:58;;;;;;;32.33;25.40;;;15.60;99.90;;;;;;5073962;28;20540;-78
2021/06/07 02:41:25;;;;;;;30.53;27.17;;;15.50;99.90;;;;;;5073906;28;20407;-78
2021/06/07 02:43:51;;;;;;;30.90;27.13;;;15.50;99.90;;;;;;5072120;28;20450;-77
2021/06/07 02:46:19;;;;;;;36.23;28.37;;;15.60;99.90;;;;;;5073602;28;20556;-78
2021/06/07 02:48:45;;;;;;;30.20;27.00;;;15.60;99.90;;;;;;5055780;28;20426;-77
2021/06/07 02:51:11;;;;;;;28.80;25.90;;;15.60;99.90;;;;;;5072367;28;20470;-76
2021/06/07 02:53:36;;;;;;;34.10;27.77;;;15.60;99.90;;;;;;5073275;28;20431;-77
2021/06/07 02:56:03;;;;;;;37.90;31.30;;;15.70;99.90;;;;;;5073629;28;20822;-76
2021/06/07 02:58:28;;;;;;;35.93;28.00;;;15.70;99.90;;;;;;5073755;28;20200;-78
2021/06/07 03:01:05;;;;;;;35.57;29.27;;;15.70;99.90;;;;;;5073640;28;20447;-77
2021/06/07 03:03:30;;;;;;;33.00;29.43;;;15.60;99.90;;;;;;5073501;28;20196;-77
2021/06/07 03:05:59;;;;;;;34.00;28.70;;;15.60;99.90;;;;;;5073680;28;20415;-77
2021/06/07 03:08:30;;;;;;;32.60;25.67;;;15.70;99.90;;;;;;5073385;28;20426;-77
2021/06/07 03:11:00;;;;;;;31.17;27.17;;;15.70;99.90;;;;;;5073332;28;20447;-79
2021/06/07 03:13:26;;;;;;;32.83;27.87;;;15.70;99.90;;;;;;5072869;28;20434;-78
2021/06/07 03:15:55;;;;;;;36.40;30.23;;;15.50;99.90;;;;;;5073553;28;20403;-77
2021/06/07 03:18:21;;;;;;;37.43;32.07;;;15.60;99.90;;;;;;5073263;28;20410;-78
2021/06/07 03:20:47;;;;;;;34.03;28.80;;;15.70;99.90;;;;;;5073177;28;20414;-78
2021/06/07 03:23:19;;;;;;;27.53;24.63;;;15.70;99.90;;;;;;5071699;28;20919;-77
2021/06/07 03:25:47;;;;;;;29.73;26.63;;;15.60;99.90;;;;;;5073235;28;20390;-76
2021/06/07 03:28:16;;;;;;;35.90;29.30;;;15.60;99.90;;;;;;5073342;28;20411;-77
2021/06/07 03:30:42;;;;;;;33.50;29.80;;;15.60;99.90;;;;;;5072973;28;20502;-78
2021/06/07 03:33:09;;;;;;;33.93;29.10;;;15.70;99.90;;;;;;5072780;28;20760;-78
2021/06/07 03:35:37;;;;;;;35.50;30.70;;;15.70;99.90;;;;;;5072057;28;20506;-77
2021/06/07 03:38:04;;;;;;;37.90;29.90;;;15.70;99.90;;;;;;5073073;28;20407;-77
2021/06/07 03:40:33;;;;;;;36.60;30.60;;;15.60;99.90;;;;;;5073096;28;20423;-77
2021/06/07 03:42:59;;;;;;;34.23;30.03;;;15.50;99.90;;;;;;5072916;28;20501;-77
2021/06/07 03:45:26;;;;;;;35.53;29.00;;;15.60;99.90;;;;;;5072976;28;20435;-77
2021/06/07 03:47:51;;;;;;;37.97;29.53;;;15.60;99.90;;;;;;5076762;28;20439;-80
2021/06/07 03:50:20;;;;;;;37.87;31.97;;;15.60;99.90;;;;;;5077143;28;20491;-76
2021/06/07 03:52:46;;;;;;;41.13;31.97;;;15.60;99.90;;;;;;5076773;28;20638;-78
2021/06/07 03:55:14;;;;;;;38.83;32.30;;;15.70;99.90;;;;;;5077007;28;20430;-77
2021/06/07 03:57:39;;;;;;;37.97;33.40;;;15.70;99.90;;;;;;5077116;28;20399;-78
2021/06/07 04:00:08;;;;;;;39.73;35.47;;;15.80;99.90;;;;;;5077042;28;20778;-78
2021/06/07 04:02:34;;;;;;;40.57;32.20;;;15.80;99.90;;;;;;5076843;28;20177;-78
2021/06/07 04:04:59;;;;;;;39.43;35.00;;;15.80;99.90;;;;;;5076413;28;20517;-79
2021/06/07 04:07:25;;;;;;;41.20;32.40;;;15.80;99.90;;;;;;5076835;28;20173;-77
2021/06/07 04:09:52;;;;;;;39.33;33.97;;;15.80;99.90;;;;;;5076738;28;20177;-78
2021/06/07 04:12:17;;;;;;;38.43;33.43;;;15.80;99.90;;;;;;5077008;28;20173;-78
2021/06/07 04:14:43;;;;;;;40.70;32.33;;;15.80;99.90;;;;;;5076350;28;20434;-77
2021/06/07 04:17:09;;;;;;;38.07;32.20;;;15.90;99.90;;;;;;5076736;28;20633;-77
2021/06/07 04:19:35;;;;;;;35.13;29.40;;;15.80;99.90;;;;;;5076708;28;20173;-77
2021/06/07 04:22:01;;;;;;;38.20;29.40;;;15.70;99.90;;;;;;5076534;28;20411;-78
2021/06/07 04:24:28;;;;;;;36.63;31.80;;;15.90;99.90;;;;;;5076262;28;20437;-77
2021/06/07 04:26:53;;;;;;;36.60;29.83;;;15.90;99.90;;;;;;5076459;28;20449;-77
2021/06/07 04:29:19;;;;;;;35.27;30.27;;;15.90;99.90;;;;;;5076307;28;20430;-78
2021/06/07 04:31:45;;;;;;;37.03;30.13;;;16.00;99.90;;;;;;5076336;28;20212;-78
2021/06/07 04:34:10;;;;;;;38.00;31.80;;;16.00;99.90;;;;;;5075926;28;20185;-78
2021/06/07 04:36:36;;;;;;;33.77;29.33;;;16.20;99.90;;;;;;5074958;28;20419;-76
2021/06/07 04:39:04;;;;;;;37.50;30.03;;;16.30;99.90;;;;;;5076310;28;20664;-79
2021/06/07 04:41:30;;;;;;;43.70;30.13;;;16.20;99.90;;;;;;5074895;28;20730;-78
2021/06/07 04:43:55;;;;;;;34.87;28.73;;;16.30;99.90;;;;;;5074613;28;20452;-77
2021/06/07 04:46:21;;;;;;;35.00;29.00;;;16.30;99.90;;;;;;5076064;28;20180;-78
2021/06/07 04:48:47;;;;;;;35.57;27.17;;;16.30;99.90;;;;;;5076083;28;20335;-77
2021/06/07 04:51:12;;;;;;;33.93;25.30;;;16.40;99.90;;;;;;5075854;28;20667;-78
2021/06/07 04:53:38;;;;;;;31.10;27.07;;;16.30;99.90;;;;;;5075480;28;20192;-78
2021/06/07 04:56:04;;;;;;;36.57;28.10;;;16.40;99.90;;;;;;5066517;28;20200;-78
2021/06/07 04:58:30;;;;;;;33.67;27.47;;;16.30;99.90;;;;;;5060229;28;20546;-76
2021/06/07 05:00:57;;;;;;;39.63;27.37;;;16.30;99.90;;;;;;5058673;28;20427;-78
2021/06/07 05:03:26;;;;;;;33.23;26.10;;;16.20;99.90;;;;;;5055577;28;20904;-78
2021/06/07 05:05:53;;;;;;;29.27;24.80;;;16.10;99.90;;;;;;5055804;28;20831;-76
2021/06/07 05:08:19;;;;;;;27.60;23.17;;;16.10;99.90;;;;;;5055675;28;20795;-77
2021/06/07 05:10:45;;;;;;;31.57;24.90;;;16.10;99.90;;;;;;5055784;28;20472;-79
2021/06/07 05:13:10;;;;;;;30.90;24.77;;;16.00;99.90;;;;;;5055378;28;20415;-77
2021/06/07 05:15:36;;;;;;;32.33;25.63;;;16.00;99.90;;;;;;5055678;28;20189;-77
2021/06/07 05:18:02;;;;;;;29.53;25.23;;;15.80;99.90;;;;;;5055504;28;20211;-79
2021/06/07 05:20:28;;;;;;;38.30;25.87;;;15.80;99.90;;;;;;5055330;28;20416;-78
2021/06/07 05:22:56;;;;;;;32.93;27.47;;;15.90;99.90;;;;;;5055443;28;20260;-77
2021/06/07 05:25:23;;;;;;;34.70;26.93;;;15.90;99.90;;;;;;5055383;28;20444;-78
2021/06/07 05:27:50;;;;;;;34.07;28.90;;;15.90;99.90;;;;;;5055179;28;20507;-77
2021/06/07 05:30:18;;;;;;;38.33;27.97;;;15.90;99.90;;;;;;5055081;28;20467;-77
2021/06/07 05:32:44;;;;;;;30.23;26.90;;;15.80;99.90;;;;;;5054985;28;20502;-78
2021/06/07 05:35:11;;;;;;;35.30;27.13;;;15.80;99.90;;;;;;5055162;28;20494;-75
2021/06/07 05:37:37;;;;;;;38.63;26.67;;;15.70;99.90;;;;;;5055064;28;20412;-74
2021/06/07 05:40:05;;;;;;;34.17;28.03;;;15.60;99.90;;;;;;5055297;28;20442;-75
2021/06/07 05:42:31;;;;;;;32.77;26.50;;;15.60;99.90;;;;;;5055093;28;20780;-75
2021/06/07 05:44:57;;;;;;;37.50;29.17;;;15.50;99.90;;;;;;5056813;28;20440;-75
2021/06/07 05:47:23;;;;;;;38.17;29.47;;;15.70;99.90;;;;;;5055056;28;20195;-75
2021/06/07 05:49:48;;;;;;;36.03;28.17;;;15.80;99.90;;;;;;5068092;28;20193;-75
2021/06/07 05:52:14;;;;;;;38.10;27.90;;;15.80;99.90;;;;;;5075089;28;20575;-75
2021/06/07 05:54:40;;;;;;;31.90;27.47;;;15.70;99.90;;;;;;5074304;28;20201;-74
2021/06/07 05:57:07;;;;;;;32.17;26.30;;;15.80;99.90;;;;;;5073688;28;20633;-75
2021/06/07 05:59:36;;;;;;;38.90;26.93;;;15.80;99.90;;;;;;5074758;28;20887;-75
2021/06/07 06:02:06;;;;;;;35.90;27.97;;;15.90;99.90;;;;;;5075114;28;20419;-75
2021/06/07 06:04:32;;;;;;;31.97;26.63;;;15.70;99.90;;;;;;5073132;28;20448;-75
2021/06/07 06:06:59;;;;;;;37.77;29.80;;;15.70;99.90;;;;;;5075014;28;20552;-74
2021/06/07 06:09:25;;;;;;;37.27;26.13;;;15.80;99.90;;;;;;5073878;28;20410;-76
2021/06/07 06:11:50;;;;;;;37.70;28.80;;;15.90;99.90;;;;;;5074086;28;20508;-75
2021/06/07 06:14:16;;;;;;;33.10;26.97;;;16.00;99.90;;;;;;5074023;28;20204;-75
2021/06/07 06:16:42;;;;;;;32.87;26.80;;;16.20;99.90;;;;;;5074778;28;20173;-75
2021/06/07 06:19:10;;;;;;;34.27;26.03;;;16.30;99.90;;;;;;5074420;28;20181;-75
2021/06/07 06:21:38;;;;;;;34.30;25.90;;;16.50;99.90;;;;;;5074538;28;20181;-75
2021/06/07 06:24:04;;;;;;;34.77;26.67;;;16.70;99.90;;;;;;5073745;28;20445;-74
2021/06/07 06:26:30;;;;;;;38.53;26.97;;;16.90;99.90;;;;;;5074274;28;20813;-75
2021/06/07 06:28:55;;;;;;;38.00;25.77;;;17.00;99.90;;;;;;5074153;28;20415;-75
2021/06/07 06:31:21;;;;;;;31.00;24.40;;;17.00;99.90;;;;;;5073904;28;20224;-75
2021/06/07 06:33:47;;;;;;;40.03;26.23;;;17.00;99.90;;;;;;5073619;28;20204;-74
2021/06/07 06:36:12;;;;;;;38.87;28.60;;;17.10;99.90;;;;;;5073947;28;20173;-75
2021/06/07 06:38:38;;;;;;;37.37;28.83;;;17.20;99.90;;;;;;5074254;28;20181;-75
2021/06/07 06:41:05;;;;;;;38.90;28.33;;;17.20;99.90;;;;;;5074005;28;20718;-74
2021/06/07 06:43:31;;;;;;;45.97;30.60;;;17.20;99.90;;;;;;5073453;28;20192;-74
2021/06/07 06:45:57;;;;;;;46.60;32.23;;;17.20;99.90;;;;;;5067983;28;20415;-80
2021/06/07 06:48:22;;;;;;;43.43;30.73;;;17.30;99.90;;;;;;5053789;28;20432;-78
2021/06/07 06:50:48;;;;;;;42.60;29.57;;;17.30;99.90;;;;;;5053741;28;20577;-78
2021/06/07 06:53:17;;;;;;;42.90;29.00;;;17.20;99.90;;;;;;5053415;28;20252;-79
2021/06/07 06:55:45;;;;;;;42.20;31.37;;;17.30;99.90;;;;;;5061855;28;20226;-78
2021/06/07 06:58:15;;;;;;;43.73;29.70;;;17.40;99.90;;;;;;5060703;28;20394;-80
2021/06/07 07:00:42;;;;;;;43.63;32.13;;;17.20;99.90;;;;;;5073576;28;20378;-78
2021/06/07 07:03:11;;;;;;;44.80;32.70;;;17.40;99.90;;;;;;5067636;28;20878;-78
2021/06/07 07:05:38;;;;;;;45.43;32.90;;;17.30;99.90;;;;;;5057119;28;20481;-78
2021/06/07 07:08:05;;;;;;;44.87;31.10;;;17.40;99.90;;;;;;5057776;28;20509;-79
2021/06/07 07:10:31;;;;;;;49.13;34.50;;;17.50;99.90;;;;;;5057628;28;20509;-78
2021/06/07 07:12:57;;;;;;;46.10;34.13;;;17.70;99.90;;;;;;5073331;28;20434;-78
2021/06/07 07:15:22;;;;;;;46.40;33.20;;;17.70;99.90;;;;;;5053501;28;20903;-78
2021/06/07 07:17:48;;;;;;;44.10;32.20;;;17.70;99.90;;;;;;5063335;28;20185;-79
2021/06/07 07:20:14;;;;;;;49.70;34.20;;;17.80;99.90;;;;;;5070494;28;20427;-78
2021/06/07 07:22:41;;;;;;;50.53;35.13;;;17.90;99.90;;;;;;5071673;28;20184;-80
2021/06/07 07:25:08;;;;;;;50.30;34.17;;;17.90;99.90;;;;;;5073148;28;20438;-78
2021/06/07 07:27:36;;;;;;;46.80;31.17;;;17.90;99.90;;;;;;5054945;28;20444;-77
2021/06/07 07:30:09;;;;;;;43.03;31.93;;;17.60;99.90;;;;;;5051617;28;20624;-78
2021/06/07 07:32:36;;;;;;;50.30;35.70;;;17.40;99.90;;;;;;5034547;28;20448;-79
2021/06/07 07:35:03;;;;;;;52.73;36.50;;;17.60;99.90;;;;;;5052619;28;20519;-78
2021/06/07 07:37:29;;;;;;;49.03;35.40;;;17.80;99.90;;;;;;5053154;28;20393;-78
2021/06/07 07:39:54;;;;;;;55.50;38.93;;;17.70;99.90;;;;;;5052124;28;20391;-78
2021/06/07 07:42:20;;;;;;;51.17;36.13;;;17.70;99.90;;;;;;5051802;28;20180;-78
2021/06/07 07:44:45;;;;;;;53.60;37.13;;;17.90;99.90;;;;;;5052619;28;20203;-79
2021/06/07 07:47:11;;;;;;;52.13;37.17;;;18.10;99.90;;;;;;5053036;28;20177;-78
2021/06/07 07:49:38;;;;;;;55.70;39.30;;;18.30;99.90;;;;;;5053008;28;20256;-78
2021/06/07 07:52:05;;;;;;;49.93;38.10;;;18.40;99.90;;;;;;5053030;28;20455;-77
2021/06/07 07:54:31;;;;;;;53.87;37.93;;;18.20;99.90;;;;;;5052391;28;20941;-78
2021/06/07 07:56:57;;;;;;;53.27;37.83;;;18.30;99.90;;;;;;5052889;28;20454;-78
2021/06/07 07:59:23;;;;;;;53.30;39.20;;;18.50;99.90;;;;;;5051662;28;20478;-77
2021/06/07 08:01:49;;;;;;;53.63;38.60;;;18.50;99.90;;;;;;5052927;28;20387;-79
2021/06/07 08:04:14;;;;;;;54.90;38.30;;;18.20;99.90;;;;;;5052643;28;20190;-78
2021/06/07 08:06:42;;;;;;;54.90;38.90;;;18.30;99.90;;;;;;5052693;28;20174;-80
2021/06/07 08:09:08;;;;;;;57.50;40.90;;;18.10;99.90;;;;;;5052721;28;20223;-78
2021/06/07 08:11:33;;;;;;;57.07;41.10;;;17.90;99.90;;;;;;5052760;28;20460;-78
2021/06/07 08:13:59;;;;;;;47.70;31.97;;;17.90;99.90;;;;;;5052452;28;20201;-78
2021/06/07 08:16:25;;;;;;;56.00;39.00;;;17.70;99.90;;;;;;5052787;28;20170;-78
2021/06/07 08:18:50;;;;;;;52.07;40.00;;;17.80;99.90;;;;;;5052705;28;20231;-79
2021/06/07 08:21:16;;;;;;;48.40;35.17;;;18.00;99.90;;;;;;5051451;28;20419;-79
2021/06/07 08:23:42;;;;;;;47.10;37.37;;;18.30;99.90;;;;;;5051087;28;20216;-78
2021/06/07 08:26:07;;;;;;;50.57;35.47;;;18.30;99.90;;;;;;5052410;28;20180;-77
2021/06/07 08:28:33;;;;;;;51.67;38.20;;;18.30;99.90;;;;;;5052737;28;20631;-77
2021/06/07 08:30:59;;;;;;;52.67;38.73;;;18.20;99.90;;;;;;5052415;28;20216;-78
2021/06/07 08:33:24;;;;;;;48.63;38.90;;;18.20;99.90;;;;;;5053429;28;20558;-80
2021/06/07 08:35:50;;;;;;;49.90;36.43;;;18.50;99.90;;;;;;5055235;28;20395;-77
2021/06/07 08:38:17;;;;;;;51.00;39.00;;;18.60;99.90;;;;;;5056359;28;20170;-77
2021/06/07 08:40:43;;;;;;;51.40;39.43;;;18.70;99.90;;;;;;5056219;28;20566;-78
2021/06/07 08:43:09;;;;;;;50.23;37.43;;;18.70;99.90;;;;;;5037994;28;20797;-78
2021/06/07 08:45:35;;;;;;;45.43;37.07;;;18.60;99.90;;;;;;5056011;28;20477;-79
2021/06/07 08:48:01;;;;;;;54.30;38.67;;;18.70;99.90;;;;;;5056077;28;20497;-79
2021/06/07 08:50:29;;;;;;;47.87;39.00;;;18.50;99.90;;;;;;5056023;28;20209;-79
2021/06/07 08:52:55;;;;;;;44.97;36.87;;;18.50;99.90;;;;;;5055585;28;20235;-81
2021/06/07 08:55:23;;;;;;;45.33;36.80;;;18.90;99.90;;;;;;5055813;28;20423;-77
2021/06/07 08:57:53;;;;;;;43.83;37.13;;;19.20;99.90;;;;;;5055779;28;20378;-77
2021/06/07 09:00:23;;;;;;;52.00;38.30;;;19.60;99.90;;;;;;5054635;28;20485;-77
2021/06/07 09:02:50;;;;;;;43.77;36.30;;;19.60;99.90;;;;;;5055632;28;20474;-79
2021/06/07 09:05:18;;;;;;;44.73;37.00;;;19.60;99.90;;;;;;5055639;28;20821;-78
2021/06/07 09:07:57;;;;;;;46.83;37.93;;;19.60;99.90;;;;;;5055593;28;20375;-78
2021/06/07 09:10:25;;;;;;;46.70;36.47;;;19.50;99.90;;;;;;5055644;28;20812;-78
2021/06/07 09:13:00;;;;;;;48.90;38.13;;;19.40;99.90;;;;;;5055664;28;20402;-78
2021/06/07 09:15:34;;;;;;;45.07;36.57;;;19.40;99.90;;;;;;5055500;28;20423;-77
2021/06/07 09:18:00;;;;;;;47.00;36.30;;;19.70;99.90;;;;;;5055535;28;20408;-77
2021/06/07 09:20:27;;;;;;;44.77;35.47;;;20.00;99.90;;;;;;5054307;28;20943;-78
2021/06/07 09:22:59;;;;;;;44.50;34.73;;;20.30;99.90;;;;;;5054051;28;20880;-78
2021/06/07 09:25:31;;;;;;;49.77;37.50;;;20.00;99.90;;;;;;5055278;28;20797;-77
2021/06/07 09:28:02;;;;;;;41.77;37.17;;;19.70;99.90;;;;;;5055475;28;20408;-77
2021/06/07 09:30:40;;;;;;;44.70;37.13;;;19.60;99.90;;;;;;5055116;28;20807;-78
2021/06/07 09:33:25;;;;;;;45.47;36.10;;;19.60;99.90;;;;;;5054908;28;20473;-78
2021/06/07 09:36:14;;;;;;;41.70;36.90;;;19.80;99.90;;;;;;5055364;28;20375;-77
2021/06/07 09:38:54;;;;;;;38.97;33.97;;;19.90;99.90;;;;;;5053955;28;20417;-78
2021/06/07 09:41:21;;;;;;;41.80;32.87;;;20.00;99.90;;;;;;5055144;28;20387;-78
2021/06/07 09:43:54;;;;;;;42.47;36.20;;;20.00;99.90;;;;;;5054580;28;20463;-78
2021/06/07 09:46:26;;;;;;;41.13;35.37;;;19.80;99.90;;;;;;5055118;28;20433;-77
2021/06/07 09:49:08;;;;;;;40.30;34.13;;;20.00;99.90;;;;;;5055100;28;20387;-78
2021/06/07 09:51:35;;;;;;;49.67;37.60;;;19.90;99.90;;;;;;5054696;28;20455;-78
2021/06/07 09:54:00;;;;;;;39.47;33.47;;;19.90;99.90;;;;;;5054528;28;20832;-78
2021/06/07 09:56:26;;;;;;;36.70;32.70;;;20.00;99.90;;;;;;5053606;28;20411;-78
2021/06/07 09:58:52;;;;;;;40.30;32.70;;;20.40;99.90;;;;;;5054803;28;20180;-78
2021/06/07 10:01:21;;;;;;;37.27;33.07;;;20.50;99.90;;;;;;5054920;28;20832;-78
2021/06/07 10:03:53;;;;;;;35.87;30.47;;;20.70;99.90;;;;;;5052978;28;21032;-79
2021/06/07 10:06:32;;;;;;;37.83;31.80;;;20.80;99.90;;;;;;5054823;28;20415;-77
2021/06/07 10:09:00;;;;;;;37.73;33.27;;;20.60;99.90;;;;;;5054801;28;20954;-77
2021/06/07 10:11:32;;;;;;;34.70;30.63;;;20.80;99.90;;;;;;5054443;28;20861;-78
2021/06/07 10:14:05;;;;;;;37.60;32.53;;;20.40;99.90;;;;;;5054134;28;20399;-77
2021/06/07 10:16:30;;;;;;;40.53;34.47;;;20.70;99.90;;;;;;5054326;28;20875;-79
2021/06/07 10:18:59;;;;;;;36.97;31.50;;;20.70;99.90;;;;;;5054246;28;20405;-78
2021/06/07 10:21:25;;;;;;;35.43;31.63;;;20.80;99.90;;;;;;5054186;28;20548;-77
2021/06/07 10:23:50;;;;;;;36.47;32.33;;;21.00;99.90;;;;;;5053695;28;20410;-78
2021/06/07 10:26:16;;;;;;;45.23;36.93;;;20.50;99.90;;;;;;5054192;28;20189;-77
2021/06/07 10:28:42;;;;;;;42.00;36.27;;;20.30;99.90;;;;;;5054396;28;20181;-78
2021/06/07 10:31:14;;;;;;;38.83;34.67;;;20.40;99.90;;;;;;5054031;28;20224;-77
2021/06/07 10:33:41;;;;;;;39.97;33.63;;;20.30;99.90;;;;;;5053729;28;20493;-77
2021/06/07 10:36:22;;;;;;;39.83;34.70;;;20.30;99.90;;;;;;5054083;28;20427;-77
2021/06/07 10:38:50;;;;;;;38.53;34.40;;;20.20;99.90;;;;;;5053934;28;20443;-78
2021/06/07 10:41:19;;;;;;;43.57;35.27;;;20.10;99.90;;;;;;5054019;28;20416;-78
2021/06/07 10:43:51;;;;;;;38.57;33.80;;;20.10;99.90;;;;;;5053514;28;20395;-77
2021/06/07 10:46:38;;;;;;;38.73;31.27;;;20.00;99.90;;;;;;5053823;28;20836;-77
2021/06/07 10:49:34;;;;;;;37.80;33.53;;;20.00;99.90;;;;;;5053808;28;20439;-78
2021/06/07 10:52:30;;;;;;;35.40;31.60;;;20.10;99.90;;;;;;5053675;28;20514;-78
2021/06/07 10:55:33;;;;;;;40.10;32.50;;;20.40;99.90;;;;;;5044895;28;20448;-77
2021/06/07 10:58:00;;;;;;;36.50;31.13;;;20.30;99.90;;;;;;5046800;28;20440;-77
2021/06/07 11:00:39;;;;;;;29.93;26.23;;;20.40;99.90;;;;;;5053681;28;20728;-77
2021/06/07 11:03:17;;;;;;;30.87;26.27;;;21.00;99.90;;;;;;5053502;28;20941;-78
2021/06/07 11:05:44;;;;;;;28.00;23.30;;;21.10;99.90;;;;;;5053533;28;20394;-78
2021/06/07 11:08:30;;;;;;;29.80;26.60;;;21.00;99.90;;;;;;5053360;28;20416;-78
2021/06/07 11:11:06;;;;;;;31.23;28.03;;;21.50;99.90;;;;;;5053453;28;20434;-77
2021/06/07 11:14:01;;;;;;;32.33;28.93;;;22.00;99.90;;;;;;5053011;28;20406;-77
2021/06/07 11:16:36;;;;;;;36.20;29.80;;;21.30;99.90;;;;;;5053323;28;20382;-78
2021/06/07 11:19:14;;;;;;;32.23;27.37;;;21.40;99.90;;;;;;5052143;28;20420;-78
2021/06/07 11:21:45;;;;;;;33.30;29.77;;;21.20;99.90;;;;;;5053545;28;20772;-78
2021/06/07 11:24:30;;;;;;;53.50;30.33;;;20.90;99.90;;;;;;5053059;28;20574;-78
2021/06/07 11:26:57;;;;;;;33.87;28.30;;;21.20;99.90;;;;;;5053416;28;20382;-78
2021/06/07 11:29:23;;;;;;;34.47;30.17;;;21.50;99.90;;;;;;5052957;28;20405;-78
2021/06/07 11:31:52;;;;;;;34.20;29.93;;;21.50;99.90;;;;;;5053123;28;20494;-77
2021/06/07 11:34:38;;;;;;;33.23;29.63;;;20.90;99.90;;;;;;5052664;28;20443;-78
2021/06/07 11:37:04;;;;;;;34.03;30.33;;;21.10;99.90;;;;;;5053209;28;20415;-78
2021/06/07 11:39:42;;;;;;;34.60;30.93;;;21.10;99.90;;;;;;5053051;28;20398;-78
2021/06/07 11:42:09;;;;;;;37.10;33.00;;;21.00;99.90;;;;;;5052971;28;20494;-77
2021/06/07 11:44:44;;;;;;;39.83;32.23;;;20.80;99.90;;;;;;5051553;28;20406;-77
2021/06/07 11:47:11;;;;;;;34.57;28.60;;;20.60;99.90;;;;;;5053158;28;20469;-78
2021/06/07 11:50:00;;;;;;;34.23;27.70;;;20.90;99.90;;;;;;5052970;28;20386;-77
2021/06/07 11:52:31;;;;;;;33.47;27.97;;;20.60;99.90;;;;;;5052942;28;20404;-78
2021/06/07 11:54:59;;;;;;;37.97;31.20;;;20.50;99.90;;;;;;5052519;28;20455;-77
2021/06/07 11:57:24;;;;;;;34.63;29.50;;;20.50;99.90;;;;;;5051736;28;20484;-79
2021/06/07 11:59:59;;;;;;;33.47;29.60;;;20.70;99.90;;;;;;5052983;28;20495;-78
2021/06/07 12:02:27;;;;;;;36.50;29.83;;;20.80;99.90;;;;;;5052829;28;20601;-78
2021/06/07 12:04:54;;;;;;;37.00;30.20;;;20.60;99.90;;;;;;5052546;28;20398;-77
2021/06/07 12:07:21;;;;;;;50.77;31.20;;;20.70;99.90;;;;;;5053953;28;20415;-78
2021/06/07 12:09:57;;;;;;;34.13;28.40;;;20.90;99.90;;;;;;5056866;28;20546;-77
2021/06/07 12:12:27;;;;;;;34.23;27.60;;;20.70;99.90;;;;;;5055751;28;20427;-78
2021/06/07 12:14:53;;;;;;;30.07;26.67;;;20.90;99.90;;;;;;5056227;28;20439;-79
2021/06/07 12:17:20;;;;;;;27.83;24.13;;;21.00;99.90;;;;;;5056777;28;20377;-78
2021/06/07 12:19:49;;;;;;;22.40;20.20;;;20.90;99.90;;;;;;5056726;28;20403;-78
2021/06/07 12:22:45;;;;;;;24.17;20.93;;;20.90;99.90;;;;;;5055350;28;20395;-78
2021/06/07 12:30:25;;;;;;;22.87;20.07;;;21.20;99.90;;;;;;5056600;28;20922;-78
2021/06/07 12:32:53;;;;;;;20.67;18.70;;;21.20;99.90;;;;;;5055037;28;20431;-77
2021/06/07 12:35:20;;;;;;;19.00;17.10;;;21.20;99.90;;;;;;5056278;28;20904;-77
2021/06/07 12:37:55;;;;;;;18.23;16.40;;;21.40;99.90;;;;;;5056208;28;20459;-77
2021/06/07 12:40:20;;;;;;;17.07;15.57;;;21.50;99.90;;;;;;5056451;28;20378;-77